Flight Track Log - Related Links

Times and Time Zones

All times are in EDT time to prevent confusion due to time zone crossing. See the SAS4417 flight status page for this flight to view local times or setup timezone preferences in your user account.

Time Position Orientation Groundspeed Altitude Reporting Facility
EDT Latitude Longitude Course Direction KTS MPH feet Rate Location/Type
Thu 08:11:28 AM 69.7030 18.8690 208° Southwest 174 200 2,600  Level FlightAware ADS-B
Thu 08:12:05 AM 69.6750 18.8340 203° Southwest 199 229 2,700 1,474 Climbing FlightAware ADS-B
Thu 08:12:25 AM 69.6440 18.7840 209° Southwest 269 310 4,000 3,500 Climbing FlightAware ADS-B
Thu 08:12:41 AM 69.6260 18.7580 207° Southwest 272 313 4,800 2,700 Climbing FlightAware ADS-B
Thu 08:13:05 AM 69.6020 18.7220 208° Southwest 284 327 5,800 2,939 Climbing FlightAware ADS-B
Thu 08:13:30 AM 69.5710 18.6790 206° Southwest 288 331 7,200 2,939 Climbing FlightAware ADS-B
Thu 08:13:54 AM 69.5460 18.6440 206° Southwest 290 334 8,200 2,737 Climbing FlightAware ADS-B
Thu 08:14:27 AM 69.5030 18.5830 206° Southwest 300 345 9,800 2,400 Climbing FlightAware ADS-B
Thu 08:14:59 AM 69.4630 18.5270 206° Southwest 311 358 10,800 845 Climbing FlightAware ADS-B
Thu 08:15:38 AM 69.4200 18.4670 206° Southwest 311 358 10,800 2,366 Level FlightAware ADS-B
Thu 08:16:10 AM 69.3640 18.3870 207° Southwest 345 397 13,600 3,649 Climbing FlightAware ADS-B
Thu 08:16:52 AM 69.3020 18.3010 206° Southwest 357 411 15,300 2,301 Climbing FlightAware ADS-B
Thu 08:17:23 AM 69.2610 18.2430 207° Southwest 359 413 16,400 2,583 Climbing FlightAware ADS-B
Thu 08:18:04 AM 69.1860 18.1390 206° Southwest 369 425 18,400 2,620 Climbing FlightAware ADS-B
Thu 08:18:34 AM 69.1430 18.0790 206° Southwest 376 433 19,500 2,323 Climbing FlightAware ADS-B
Thu 08:19:06 AM 69.0900 18.0070 206° Southwest 381 438 20,800 2,535 Climbing FlightAware ADS-B
Thu 08:19:45 AM 69.0250 17.9180 206° Southwest 394 453 22,500 2,480 Climbing FlightAware ADS-B
Thu 08:20:21 AM 68.9680 17.8410 206° Southwest 395 455 23,900 2,400 Climbing FlightAware ADS-B
Thu 08:20:55 AM 68.9070 17.7580 206° Southwest 410 472 25,300 2,351 Climbing FlightAware ADS-B
Thu 08:21:35 AM 68.8390 17.6670 206° Southwest 408 470 26,800 2,143 Climbing FlightAware ADS-B
Thu 08:22:05 AM 68.7880 17.5990 206° Southwest 414 476 27,800 1,938 Climbing FlightAware ADS-B
Thu 08:22:40 AM 68.7250 17.5160 206° Southwest 428 493 28,900 1,886 Climbing FlightAware ADS-B
Thu 08:23:15 AM 68.6620 17.4340 205° Southwest 427 491 30,000 1,917 Climbing FlightAware ADS-B
Thu 08:23:52 AM 68.5990 17.3510 206° Southwest 426 490 31,200 2,057 Climbing FlightAware ADS-B
Thu 08:24:25 AM 68.5360 17.2700 205° Southwest 430 495 32,400 2,029 Climbing FlightAware ADS-B
Thu 08:25:00 AM 68.4730 17.1890 205° Southwest 429 494 33,500 1,800 Climbing FlightAware ADS-B
Thu 08:25:35 AM 68.4110 17.1090 205° Southwest 430 495 34,500 1,477 Climbing FlightAware ADS-B
Thu 08:26:05 AM 68.3570 17.0400 205° Southwest 428 493 35,100 1,200 Climbing FlightAware ADS-B
Thu 08:26:40 AM 68.2940 16.9600 205° Southwest 440 506 35,800 686 Climbing FlightAware ADS-B
Thu 08:27:15 AM 68.2300 16.8790 205° Southwest 447 514 35,900 160 Climbing FlightAware ADS-B
Thu 08:27:55 AM 68.1530 16.7840 205° Southwest 460 529 36,000 80 Climbing FlightAware ADS-B
Thu 08:28:30 AM 68.0840 16.6980 205° Southwest 459 528 36,000  Level FlightAware ADS-B
Thu 08:29:05 AM 68.0140 16.6120 205° Southwest 459 528 36,000  Level FlightAware ADS-B
Thu 08:29:45 AM 67.9360 16.5170 205° Southwest 459 528 36,000  Level FlightAware ADS-B
Thu 08:30:15 AM 67.8790 16.4470 205° Southwest 459 528 36,000  Level FlightAware ADS-B
Thu 08:30:50 AM 67.8110 16.3600 206° Southwest 466 536 36,000  Level FlightAware ADS-B
Thu 08:31:30 AM 67.7390 16.2640 207° Southwest 466 536 36,000  Level FlightAware ADS-B
Thu 08:32:00 AM 67.6810 16.1890 206° Southwest 467 537 36,000  Level FlightAware ADS-B
Thu 08:32:35 AM 67.6080 16.0950 206° Southwest 468 539 36,000  Level FlightAware ADS-B
Thu 08:33:15 AM 67.5290 15.9970 205° Southwest 462 532 36,000  Level FlightAware ADS-B
Thu 08:33:54 AM 67.4540 15.9030 206° Southwest 462 532 36,000  Level FlightAware ADS-B
Thu 08:34:30 AM 67.3850 15.8160 206° Southwest 469 540 36,000  Level FlightAware ADS-B
Thu 08:35:04 AM 67.3180 15.7330 206° Southwest 462 532 36,000  Level FlightAware ADS-B
Thu 08:35:40 AM 67.2490 15.6470 206° Southwest 461 531 36,000  Level FlightAware ADS-B
Thu 08:36:19 AM 67.1730 15.5540 205° Southwest 467 537 36,000  Level FlightAware ADS-B
Thu 08:36:55 AM 67.1030 15.4690 205° Southwest 460 529 36,000  Level FlightAware ADS-B
Thu 08:37:29 AM 67.0350 15.3870 205° Southwest 461 531 36,000  Level FlightAware ADS-B
Thu 08:38:10 AM 66.9560 15.2920 205° Southwest 461 531 36,000  Level FlightAware ADS-B
Thu 08:38:39 AM 66.9080 15.2330 206° Southwest 461 531 36,000  Level FlightAware ADS-B
Thu 08:39:15 AM 66.8310 15.1410 205° Southwest 461 531 36,000  Level FlightAware ADS-B
Thu 08:39:49 AM 66.7610 15.0580 205° Southwest 462 532 36,000  Level FlightAware ADS-B
Thu 08:40:25 AM 66.6960 14.9810 205° Southwest 462 532 36,000  Level FlightAware ADS-B
Thu 08:41:05 AM 66.6150 14.8880 205° Southwest 463 533 36,000  Level FlightAware ADS-B
Thu 08:41:50 AM 66.5280 14.7880 205° Southwest 464 534 36,000  Level FlightAware ADS-B
Thu 08:42:25 AM 66.4640 14.7140 205° Southwest 464 534 36,000  Level FlightAware ADS-B
Thu 08:43:08 AM 66.3900 14.6280 205° Southwest 464 534 36,000  Level FlightAware ADS-B
Thu 08:43:52 AM 66.2980 14.5230 205° Southwest 464 534 36,000  Level FlightAware ADS-B
Thu 08:44:41 AM 66.2010 14.4160 204° Southwest 473 544 36,000  Level FlightAware ADS-B
Thu 08:45:18 AM 66.1200 14.3260 204° Southwest 474 545 36,000  Level FlightAware ADS-B
Thu 08:45:44 AM 66.0580 14.2560 205° Southwest 474 545 36,000  Level FlightAware ADS-B
Thu 08:46:20 AM 65.9890 14.1800 204° Southwest 476 548 36,000  Level FlightAware ADS-B
Thu 08:47:00 AM 65.9080 14.0910 204° Southwest 477 549 36,000  Level FlightAware ADS-B
Thu 08:47:36 AM 65.8350 14.0120 204° Southwest 476 548 36,000  Level FlightAware ADS-B
Thu 08:48:09 AM 65.7720 13.9430 204° Southwest 477 549 36,000  Level FlightAware ADS-B
Thu 08:48:44 AM 65.6960 13.8690 202° Southwest 478 550 36,000  Level FlightAware ADS-B
Thu 08:49:20 AM 65.6230 13.8000 201° Southwest 478 550 36,000  Level FlightAware ADS-B
Thu 08:49:56 AM 65.5500 13.7300 202° Southwest 479 551 36,000  Level FlightAware ADS-B
Thu 08:50:30 AM 65.4800 13.6640 201° Southwest 479 551 36,000  Level FlightAware ADS-B
Thu 08:51:06 AM 65.4040 13.5920 202° Southwest 480 552 36,000  Level FlightAware ADS-B
Thu 08:51:38 AM 65.3410 13.5330 201° Southwest 479 551 36,000  Level FlightAware ADS-B
Thu 08:52:14 AM 65.2650 13.4610 202° Southwest 480 552 36,000  Level FlightAware ADS-B
Thu 08:52:50 AM 65.1910 13.3920 201° Southwest 480 552 36,000  Level FlightAware ADS-B
Thu 08:53:20 AM 65.1310 13.3370 201° Southwest 480 552 36,000  Level FlightAware ADS-B
Thu 08:53:59 AM 65.0520 13.2640 201° Southwest 480 552 36,000  Level FlightAware ADS-B
Thu 08:54:34 AM 64.9780 13.1970 201° Southwest 481 554 36,000  Level FlightAware ADS-B
Thu 08:55:08 AM 64.9050 13.1310 201° Southwest 482 555 36,000  Level FlightAware ADS-B
Thu 08:55:44 AM 64.8300 13.0640 201° Southwest 482 555 36,000  Level FlightAware ADS-B
Thu 08:56:20 AM 64.7580 12.9990 201° Southwest 482 555 36,000  Level FlightAware ADS-B
Thu 08:56:52 AM 64.6900 12.9380 201° Southwest 481 554 36,000  Level FlightAware ADS-B
Thu 08:57:29 AM 64.6150 12.8700 201° Southwest 481 554 36,000  Level FlightAware ADS-B
Thu 08:58:06 AM 64.5370 12.8020 201° Southwest 480 552 36,000  Level FlightAware ADS-B
Thu 08:58:42 AM 64.4610 12.7370 200° South 481 554 36,000  Level FlightAware ADS-B
Thu 08:59:14 AM 64.3960 12.6790 201° Southwest 481 554 36,000  Level FlightAware ADS-B
Thu 08:59:50 AM 64.3200 12.6130 201° Southwest 480 552 36,000  Level FlightAware ADS-B
Thu 09:00:26 AM 64.2450 12.5490 200° South 480 552 36,000  Level FlightAware ADS-B
Thu 09:01:02 AM 64.1710 12.4860 200° South 480 552 36,000  Level FlightAware ADS-B
Thu 09:01:34 AM 64.1050 12.4290 201° Southwest 481 554 36,000  Level FlightAware ADS-B
Thu 09:02:10 AM 64.0310 12.3660 200° South 481 554 36,000  Level FlightAware ADS-B
Thu 09:02:46 AM 63.9550 12.3020 200° South 481 554 36,000  Level FlightAware ADS-B
Thu 09:03:22 AM 63.8790 12.2390 200° South 481 554 36,000  Level FlightAware ADS-B
Thu 09:03:54 AM 63.8140 12.1850 200° South 482 555 36,000  Level FlightAware ADS-B
Thu 09:04:26 AM 63.7460 12.1290 200° South 482 555 36,000  Level FlightAware ADS-B
Thu 09:05:06 AM 63.6640 12.0610 200° South 483 556 36,000  Level FlightAware ADS-B
Thu 09:05:42 AM 63.5870 11.9970 200° South 483 556 36,000  Level FlightAware ADS-B
Thu 09:06:14 AM 63.5210 11.9430 200° South 483 556 36,000  Level FlightAware ADS-B
Thu 09:06:50 AM 63.4450 11.8820 200° South 483 556 36,000  Level FlightAware ADS-B
Thu 09:07:26 AM 63.3700 11.8210 200° South 484 557 36,000  Level FlightAware ADS-B
Thu 09:07:56 AM 63.3060 11.7750 198° South 486 559 36,000  Level FlightAware ADS-B
Thu 09:08:35 AM 63.2220 11.7250 195° South 487 560 36,000  Level FlightAware ADS-B
Thu 09:09:11 AM 63.1430 11.6780 195° South 488 562 36,000  Level FlightAware ADS-B
Thu 09:09:47 AM 63.0660 11.6320 195° South 488 562 36,000  Level FlightAware ADS-B
Thu 09:10:19 AM 62.9960 11.5900 195° South 488 562 36,000  Level FlightAware ADS-B
Thu 09:10:55 AM 62.9170 11.5440 195° South 488 562 36,000  Level FlightAware ADS-B
Thu 09:11:27 AM 62.8660 11.5140 195° South 487 560 36,000  Level FlightAware ADS-B
Thu 09:12:05 AM 62.7660 11.4560 195° South 487 560 36,000  Level FlightAware ADS-B
Thu 09:12:37 AM 62.6960 11.4150 195° South 487 560 36,000  Level FlightAware ADS-B
Thu 09:13:15 AM 62.6140 11.3670 195° South 486 559 36,000  Level FlightAware ADS-B
Thu 09:13:51 AM 62.5370 11.3220 195° South 487 560 36,000  Level FlightAware ADS-B
Thu 09:14:23 AM 62.4660 11.2820 195° South 486 559 36,000  Level FlightAware ADS-B
Thu 09:14:59 AM 62.3890 11.2380 195° South 487 560 36,000  Level FlightAware ADS-B
Thu 09:15:35 AM 62.3100 11.1940 195° South 488 562 36,000  Level FlightAware ADS-B
Thu 09:16:08 AM 62.2410 11.1550 195° South 488 562 36,000  Level FlightAware ADS-B
Thu 09:16:45 AM 62.1590 11.1090 195° South 489 563 36,000  Level FlightAware ADS-B
Thu 09:17:21 AM 62.0780 11.0640 195° South 489 563 36,000  Level FlightAware ADS-B
Thu 09:17:53 AM 62.0090 11.0260 194° South 490 564 36,000  Level FlightAware ADS-B
Thu 09:18:27 AM 61.9350 10.9850 195° South 490 564 36,000 -171 Level FlightAware ADS-B
Thu 09:19:03 AM 61.8550 10.9410 195° South 492 566 35,800 -1,500 Descending FlightAware ADS-B
Thu 09:19:39 AM 61.7770 10.8990 194° South 493 567 34,200 -3,083 Descending FlightAware ADS-B
Thu 09:20:15 AM 61.6960 10.8550 194° South 499 574 32,100 -3,083 Descending FlightAware ADS-B
Thu 09:20:51 AM 61.6160 10.8120 194° South 495 570 30,500 -2,559 Descending FlightAware ADS-B
Thu 09:21:23 AM 61.5470 10.7740 195° South 487 560 29,200 -2,382 Descending FlightAware ADS-B
Thu 09:21:59 AM 61.4680 10.7360 193° South 482 555 27,800 -2,382 Descending FlightAware ADS-B
Thu 09:22:31 AM 61.3990 10.7220 186° South 475 547 26,500 -2,273 Descending FlightAware ADS-B
Thu 09:23:05 AM 61.3260 10.7080 185° South 465 535 25,300 -1,667 Descending FlightAware ADS-B
Thu 09:23:43 AM 61.2500 10.6910 186° South 440 506 24,500 -1,263 Descending FlightAware ADS-B
Thu 09:24:21 AM 61.1720 10.6750 186° South 417 480 23,700 -1,459 Descending FlightAware ADS-B
Thu 09:24:57 AM 61.1060 10.6590 187° South 406 467 22,700 -1,588 Descending FlightAware ADS-B
Thu 09:25:29 AM 61.0510 10.6190 199° South 386 444 21,900 -1,588 Descending FlightAware ADS-B
Thu 09:26:05 AM 60.9930 10.5660 204° Southwest 380 437 20,900 -1,690 Descending FlightAware ADS-B
Thu 09:26:40 AM 60.9380 10.5170 203° Southwest 372 428 19,900 -1,765 Descending FlightAware ADS-B
Thu 09:27:13 AM 60.8820 10.4730 201° Southwest 371 427 18,900 -1,701 Descending FlightAware ADS-B
Thu 09:27:47 AM 60.8260 10.4500 191° South 367 422 18,000 -1,667 Descending FlightAware ADS-B
Thu 09:28:25 AM 60.7630 10.4260 191° South 361 415 16,900 -1,629 Descending FlightAware ADS-B
Thu 09:28:57 AM 60.7140 10.4080 190° South 356 410 16,100 -1,583 Descending FlightAware ADS-B
Thu 09:29:37 AM 60.6500 10.3840 190° South 350 403 15,000 -1,588 Descending FlightAware ADS-B
Thu 09:30:05 AM 60.6060 10.3680 190° South 344 396 14,300 -1,588 Descending FlightAware ADS-B
Thu 09:30:45 AM 60.5420 10.3440 190° South 339 390 13,200 -1,658 Descending FlightAware ADS-B
Thu 09:31:21 AM 60.4860 10.3240 190° South 332 382 12,200 -1,588 Descending FlightAware ADS-B
Thu 09:31:53 AM 60.4380 10.3060 190° South 325 374 11,400 -1,457 Descending FlightAware ADS-B
Thu 09:32:31 AM 60.3830 10.2960 185° South 322 371 10,500 -1,364 Descending FlightAware ADS-B
Thu 09:32:59 AM 60.3420 10.2890 185° South 310 357 9,900 -1,304 Descending FlightAware ADS-B
Thu 09:33:17 AM 60.3170 10.2850 185° South 308 354 9,500 -1,286 Descending FlightAware ADS-B
Thu 09:33:41 AM 60.2830 10.2790 185° South 302 348 9,000 -682 Descending FlightAware ADS-B
Thu 09:34:01 AM 60.2570 10.2750 184° South 287 330 9,000  Level FlightAware ADS-B
Thu 09:34:17 AM 60.2350 10.2710 185° South 287 330 9,000  Level FlightAware ADS-B
Thu 09:34:37 AM 60.2090 10.2660 185° South 276 318 9,000  Level FlightAware ADS-B
Thu 09:34:57 AM 60.1840 10.2620 185° South 270 311 9,000  Level FlightAware ADS-B
Thu 09:35:15 AM 60.1610 10.2580 185° South 270 311 9,000  Level FlightAware ADS-B
Thu 09:35:35 AM 60.1360 10.2530 186° South 268 308 9,000  Level FlightAware ADS-B
Thu 09:35:47 AM 60.1240 10.2470 194° South 265 305 9,000  Level FlightAware ADS-B
Thu 09:36:07 AM 60.1010 10.2310 199° South 263 303 9,000  Level FlightAware ADS-B
Thu 09:36:31 AM 60.0710 10.2100 199° South 263 303 9,000  Level FlightAware ADS-B
Thu 09:36:51 AM 60.0490 10.1940 200° South 259 298 9,000  Level FlightAware ADS-B
Thu 09:37:07 AM 60.0320 10.1840 196° South 260 299 9,000  Level FlightAware ADS-B
Thu 09:37:25 AM 60.0110 10.1790 187° South 263 303 9,000  Level FlightAware ADS-B
Thu 09:37:45 AM 59.9840 10.1800 179° South 271 312 9,000  Level FlightAware ADS-B
Thu 09:38:04 AM 59.9600 10.1800 180° South 272 313 9,000  Level FlightAware ADS-B
Thu 09:38:30 AM 59.9270 10.1810 179° South 266 306 9,000  Level FlightAware ADS-B
Thu 09:38:42 AM 59.9120 10.1870 169° South 266 306 9,000  Level FlightAware ADS-B
Thu 09:38:49 AM 59.9050 10.1940 153° Southeast 266 306 9,000  Level FlightAware ADS-B
Thu 09:38:58 AM 59.8970 10.2110 133° Southeast 266 306 9,000  Level FlightAware ADS-B
Thu 09:39:07 AM 59.8920 10.2290 119° Southeast 263 303 9,000 -300 Level FlightAware ADS-B
Thu 09:39:18 AM 59.8880 10.2540 108° East 259 298 8,900 -400 Descending FlightAware ADS-B
Thu 09:39:22 AM 59.8880 10.2640 90° East 257 296 8,900 -750 Level FlightAware ADS-B
Thu 09:39:42 AM 59.8920 10.3010 78° East 249 287 8,600 -720 Descending FlightAware ADS-B
Thu 09:40:12 AM 59.9030 10.3660 71° East 251 289 8,300 -750 Descending FlightAware ADS-B
Thu 09:40:30 AM 59.9100 10.4070 71° East 249 287 8,000 -857 Descending FlightAware ADS-B
Thu 09:40:54 AM 59.9180 10.4610 74° East 249 287 7,700 -766 Descending FlightAware ADS-B
Thu 09:41:17 AM 59.9260 10.5080 71° East 249 287 7,400 -732 Descending FlightAware ADS-B
Thu 09:41:35 AM 59.9320 10.5470 73° East 248 285 7,200 -667 Descending FlightAware ADS-B
Thu 09:41:53 AM 59.9390 10.5880 71° East 246 283 7,000 -714 Descending FlightAware ADS-B
Thu 09:42:17 AM 59.9480 10.6420 72° East 243 280 6,700 -682 Descending FlightAware ADS-B
Thu 09:42:37 AM 59.9530 10.6730 72° East 239 275 6,500 -977 Descending FlightAware ADS-B
Thu 09:43:00 AM 59.9620 10.7320 73° East 236 272 6,000 -1,050 Descending FlightAware ADS-B
Thu 09:43:17 AM 59.9670 10.7600 70° East 236 272 5,800 -857 Descending FlightAware ADS-B
Thu 09:43:42 AM 59.9750 10.8100 72° East 236 272 5,400 -1,000 Descending FlightAware ADS-B
Thu 09:44:05 AM 59.9810 10.8650 78° East 234 269 5,000 -1,200 Descending FlightAware ADS-B
Thu 09:44:22 AM 59.9860 10.9030 75° East 231 266 4,600 -1,200 Descending FlightAware ADS-B
Thu 09:44:35 AM 59.9890 10.9240 74° East 231 266 4,400 -1,000 Descending FlightAware ADS-B
Thu 09:44:52 AM 59.9960 10.9580 68° East 226 260 4,100 -1,043 Descending FlightAware ADS-B
Thu 09:44:58 AM 60.0000 10.9660 45° Northeast 222 255 4,000 -1,000 Descending FlightAware ADS-B
Thu 09:45:04 AM 60.0070 10.9720 23° Northeast 217 250 3,900 -261 Descending FlightAware ADS-B
Thu 09:45:21 AM 60.0240 10.9800 13° North 195 224 3,900 -364 Level FlightAware ADS-B
Thu 09:45:37 AM 60.0380 10.9890 18° North 186 214 3,700 -833 Descending FlightAware ADS-B
Thu 09:45:57 AM 60.0530 10.9980 17° North 183 211 3,400 -1,050 Descending FlightAware ADS-B
Thu 09:46:17 AM 60.0700 11.0080 16° North 177 204 3,000 -1,050 Descending FlightAware ADS-B
Thu 09:46:37 AM 60.0850 11.0170 17° North 173 199 2,700 -955 Descending FlightAware ADS-B
Thu 09:47:01 AM 60.1040 11.0270 15° North 162 186 2,300 -955 Descending FlightAware ADS-B
Thu 09:47:21 AM 60.1170 11.0350 17° North 146 168 2,000 -789 Descending FlightAware ADS-B
Thu 09:47:39 AM 60.1280 11.0410 15° North 132 152 1,800 -750 Descending FlightAware ADS-B
Thu 09:48:01 AM 60.1410 11.0490 17° North 134 154 1,500 -783 Descending FlightAware ADS-B
Thu 09:48:25 AM 60.1550 11.0570 16° North 133 153 1,200 -632 Descending FlightAware ADS-B
Thu 09:48:39 AM 60.1640 11.0610 12° North 132 152 1,100 -750 Descending FlightAware ADS-B
Thu 09:48:57 AM 60.1750 11.0680 18° North 134 154 800 -387 Descending FlightAware ADS-B
Thu 09:49:41 AM 60.1970 11.0800 15° North 135 155 700 -136 Descending FlightAware ADS-B
Thu 09:52:00 AM 60.1939 11.1004 107° East  Level Estimated
Thu 09:53:00 AM 60.1939 11.1004 171° South  Level Estimated

Login

Don't have an account? Register now (free) for customized features, flight alerts, and more!